sensor_id;sensor_type;location;lat;lon;timestamp;P1;durP1;ratioP1;P2;durP2;ratioP2
12774;SDS011;6451;42.630;23.382;2023-04-03T00:01:54;4.10;;;2.37;;
12774;SDS011;6451;42.630;23.382;2023-04-03T00:04:21;3.30;;;2.10;;
12774;SDS011;6451;42.630;23.382;2023-04-03T00:06:48;2.43;;;2.23;;
12774;SDS011;6451;42.630;23.382;2023-04-03T00:09:15;3.00;;;2.00;;
12774;SDS011;6451;42.630;23.382;2023-04-03T00:11:41;2.90;;;2.07;;
12774;SDS011;6451;42.630;23.382;2023-04-03T00:14:08;2.77;;;1.97;;
12774;SDS011;6451;42.630;23.382;2023-04-03T00:16:37;2.87;;;2.27;;
12774;SDS011;6451;42.630;23.382;2023-04-03T00:19:03;2.70;;;2.30;;
12774;SDS011;6451;42.630;23.382;2023-04-03T00:21:30;4.37;;;2.20;;
12774;SDS011;6451;42.630;23.382;2023-04-03T00:23:57;3.37;;;2.20;;
12774;SDS011;6451;42.630;23.382;2023-04-03T00:26:25;2.70;;;1.70;;
12774;SDS011;6451;42.630;23.382;2023-04-03T00:28:52;3.17;;;2.17;;
12774;SDS011;6451;42.630;23.382;2023-04-03T00:31:18;2.53;;;2.10;;
12774;SDS011;6451;42.630;23.382;2023-04-03T00:33:47;3.23;;;2.13;;
12774;SDS011;6451;42.630;23.382;2023-04-03T00:36:15;2.73;;;2.10;;
12774;SDS011;6451;42.630;23.382;2023-04-03T00:38:42;2.57;;;2.00;;
12774;SDS011;6451;42.630;23.382;2023-04-03T00:41:09;3.10;;;2.10;;
12774;SDS011;6451;42.630;23.382;2023-04-03T00:43:36;2.57;;;2.00;;
12774;SDS011;6451;42.630;23.382;2023-04-03T00:46:04;3.27;;;2.20;;
12774;SDS011;6451;42.630;23.382;2023-04-03T00:48:32;2.90;;;2.10;;
12774;SDS011;6451;42.630;23.382;2023-04-03T00:51:04;2.37;;;2.10;;
12774;SDS011;6451;42.630;23.382;2023-04-03T00:53:37;2.90;;;2.20;;
12774;SDS011;6451;42.630;23.382;2023-04-03T00:56:06;2.77;;;2.20;;
12774;SDS011;6451;42.630;23.382;2023-04-03T00:58:37;2.90;;;2.30;;
12774;SDS011;6451;42.630;23.382;2023-04-03T01:01:08;3.27;;;2.47;;
12774;SDS011;6451;42.630;23.382;2023-04-03T01:03:40;3.60;;;2.30;;
12774;SDS011;6451;42.630;23.382;2023-04-03T01:06:08;3.30;;;2.40;;
12774;SDS011;6451;42.630;23.382;2023-04-03T01:08:35;3.70;;;2.27;;
12774;SDS011;6451;42.630;23.382;2023-04-03T01:11:02;3.17;;;2.33;;
12774;SDS011;6451;42.630;23.382;2023-04-03T01:13:30;3.40;;;2.47;;
12774;SDS011;6451;42.630;23.382;2023-04-03T01:16:05;5.00;;;2.43;;
12774;SDS011;6451;42.630;23.382;2023-04-03T01:18:33;2.60;;;2.33;;
12774;SDS011;6451;42.630;23.382;2023-04-03T01:21:18;3.87;;;2.43;;
12774;SDS011;6451;42.630;23.382;2023-04-03T01:24:12;2.37;;;2.17;;
12774;SDS011;6451;42.630;23.382;2023-04-03T01:26:49;2.80;;;2.27;;
12774;SDS011;6451;42.630;23.382;2023-04-03T01:29:16;3.17;;;2.23;;
12774;SDS011;6451;42.630;23.382;2023-04-03T01:31:47;2.77;;;2.33;;
12774;SDS011;6451;42.630;23.382;2023-04-03T01:34:15;2.93;;;2.20;;
12774;SDS011;6451;42.630;23.382;2023-04-03T01:36:42;4.23;;;2.00;;
12774;SDS011;6451;42.630;23.382;2023-04-03T01:39:10;3.10;;;2.10;;
12774;SDS011;6451;42.630;23.382;2023-04-03T01:41:37;3.37;;;2.13;;
12774;SDS011;6451;42.630;23.382;2023-04-03T01:44:04;2.80;;;2.03;;
12774;SDS011;6451;42.630;23.382;2023-04-03T01:46:31;4.13;;;1.90;;
12774;SDS011;6451;42.630;23.382;2023-04-03T01:49:01;2.40;;;1.90;;
12774;SDS011;6451;42.630;23.382;2023-04-03T01:51:28;3.03;;;1.90;;
12774;SDS011;6451;42.630;23.382;2023-04-03T01:53:55;4.00;;;1.97;;
12774;SDS011;6451;42.630;23.382;2023-04-03T01:56:22;3.07;;;2.00;;
12774;SDS011;6451;42.630;23.382;2023-04-03T01:58:50;1.97;;;1.80;;
12774;SDS011;6451;42.630;23.382;2023-04-03T02:01:17;4.43;;;2.07;;
12774;SDS011;6451;42.630;23.382;2023-04-03T02:03:45;2.97;;;2.03;;
12774;SDS011;6451;42.630;23.382;2023-04-03T02:06:13;2.33;;;1.83;;
12774;SDS011;6451;42.630;23.382;2023-04-03T02:08:40;2.37;;;2.00;;
12774;SDS011;6451;42.630;23.382;2023-04-03T02:11:08;3.13;;;2.20;;
12774;SDS011;6451;42.630;23.382;2023-04-03T02:13:35;2.83;;;1.97;;
12774;SDS011;6451;42.630;23.382;2023-04-03T02:16:06;2.47;;;2.20;;
12774;SDS011;6451;42.630;23.382;2023-04-03T02:18:35;2.20;;;2.00;;
12774;SDS011;6451;42.630;23.382;2023-04-03T02:21:02;3.30;;;2.17;;
12774;SDS011;6451;42.630;23.382;2023-04-03T02:23:30;4.13;;;2.33;;
12774;SDS011;6451;42.630;23.382;2023-04-03T02:26:04;2.10;;;1.70;;
12774;SDS011;6451;42.630;23.382;2023-04-03T02:28:32;3.57;;;2.10;;
12774;SDS011;6451;42.630;23.382;2023-04-03T02:31:00;2.40;;;2.10;;
12774;SDS011;6451;42.630;23.382;2023-04-03T02:33:27;3.80;;;2.27;;
12774;SDS011;6451;42.630;23.382;2023-04-03T02:35:54;2.53;;;2.20;;
12774;SDS011;6451;42.630;23.382;2023-04-03T02:38:22;2.57;;;2.10;;
12774;SDS011;6451;42.630;23.382;2023-04-03T02:40:50;4.40;;;2.20;;
12774;SDS011;6451;42.630;23.382;2023-04-03T02:43:18;2.50;;;2.23;;
12774;SDS011;6451;42.630;23.382;2023-04-03T02:45:45;3.37;;;2.30;;
12774;SDS011;6451;42.630;23.382;2023-04-03T02:48:12;4.33;;;2.00;;
12774;SDS011;6451;42.630;23.382;2023-04-03T02:50:39;3.33;;;2.40;;
12774;SDS011;6451;42.630;23.382;2023-04-03T02:53:06;2.70;;;2.30;;
12774;SDS011;6451;42.630;23.382;2023-04-03T02:55:33;2.80;;;2.30;;
12774;SDS011;6451;42.630;23.382;2023-04-03T02:58:02;2.80;;;2.30;;
12774;SDS011;6451;42.630;23.382;2023-04-03T03:00:29;3.57;;;2.47;;
12774;SDS011;6451;42.630;23.382;2023-04-03T03:02:56;3.17;;;2.43;;
12774;SDS011;6451;42.630;23.382;2023-04-03T03:05:23;2.90;;;2.50;;
12774;SDS011;6451;42.630;23.382;2023-04-03T03:07:50;3.07;;;2.27;;
12774;SDS011;6451;42.630;23.382;2023-04-03T03:10:16;3.10;;;2.50;;
12774;SDS011;6451;42.630;23.382;2023-04-03T03:12:44;4.00;;;2.60;;
12774;SDS011;6451;42.630;23.382;2023-04-03T03:15:12;3.17;;;2.70;;
12774;SDS011;6451;42.630;23.382;2023-04-03T03:17:40;3.30;;;2.43;;
12774;SDS011;6451;42.630;23.382;2023-04-03T03:20:09;4.17;;;2.67;;
12774;SDS011;6451;42.630;23.382;2023-04-03T03:22:36;2.90;;;2.60;;
12774;SDS011;6451;42.630;23.382;2023-04-03T03:25:03;4.73;;;2.60;;
12774;SDS011;6451;42.630;23.382;2023-04-03T03:27:31;3.23;;;2.50;;
12774;SDS011;6451;42.630;23.382;2023-04-03T03:29:58;4.83;;;2.40;;
12774;SDS011;6451;42.630;23.382;2023-04-03T03:32:26;4.27;;;2.50;;
12774;SDS011;6451;42.630;23.382;2023-04-03T03:34:53;4.97;;;2.77;;
12774;SDS011;6451;42.630;23.382;2023-04-03T03:37:20;5.83;;;2.73;;
12774;SDS011;6451;42.630;23.382;2023-04-03T03:39:47;3.53;;;2.60;;
12774;SDS011;6451;42.630;23.382;2023-04-03T03:42:14;4.57;;;2.40;;
12774;SDS011;6451;42.630;23.382;2023-04-03T03:44:41;5.83;;;2.80;;
12774;SDS011;6451;42.630;23.382;2023-04-03T03:47:08;4.40;;;2.90;;
12774;SDS011;6451;42.630;23.382;2023-04-03T03:49:37;2.90;;;2.60;;
12774;SDS011;6451;42.630;23.382;2023-04-03T03:52:04;5.53;;;2.70;;
12774;SDS011;6451;42.630;23.382;2023-04-03T03:54:31;3.33;;;2.80;;
12774;SDS011;6451;42.630;23.382;2023-04-03T03:56:58;3.53;;;2.57;;
12774;SDS011;6451;42.630;23.382;2023-04-03T03:59:25;3.83;;;2.73;;
12774;SDS011;6451;42.630;23.382;2023-04-03T04:01:52;3.07;;;2.20;;
12774;SDS011;6451;42.630;23.382;2023-04-03T04:04:19;5.13;;;2.90;;
12774;SDS011;6451;42.630;23.382;2023-04-03T04:06:47;4.73;;;2.90;;
12774;SDS011;6451;42.630;23.382;2023-04-03T04:09:14;4.57;;;2.40;;
12774;SDS011;6451;42.630;23.382;2023-04-03T04:11:41;3.63;;;2.63;;
12774;SDS011;6451;42.630;23.382;2023-04-03T04:14:08;5.77;;;3.03;;
12774;SDS011;6451;42.630;23.382;2023-04-03T04:16:35;5.87;;;2.80;;
12774;SDS011;6451;42.630;23.382;2023-04-03T04:19:03;4.30;;;2.73;;
12774;SDS011;6451;42.630;23.382;2023-04-03T04:21:30;5.70;;;2.87;;
12774;SDS011;6451;42.630;23.382;2023-04-03T04:23:58;4.20;;;2.80;;
12774;SDS011;6451;42.630;23.382;2023-04-03T04:26:25;4.87;;;3.00;;
12774;SDS011;6451;42.630;23.382;2023-04-03T04:28:52;3.50;;;3.00;;
12774;SDS011;6451;42.630;23.382;2023-04-03T04:31:19;4.77;;;2.70;;
12774;SDS011;6451;42.630;23.382;2023-04-03T04:33:46;4.13;;;2.80;;
12774;SDS011;6451;42.630;23.382;2023-04-03T04:36:12;5.93;;;2.90;;
12774;SDS011;6451;42.630;23.382;2023-04-03T04:38:39;5.27;;;2.60;;
12774;SDS011;6451;42.630;23.382;2023-04-03T04:41:08;4.00;;;2.83;;
12774;SDS011;6451;42.630;23.382;2023-04-03T04:43:35;3.70;;;2.70;;
12774;SDS011;6451;42.630;23.382;2023-04-03T04:46:02;4.97;;;2.83;;
12774;SDS011;6451;42.630;23.382;2023-04-03T04:48:30;5.77;;;2.70;;
12774;SDS011;6451;42.630;23.382;2023-04-03T04:50:57;9.33;;;3.20;;
12774;SDS011;6451;42.630;23.382;2023-04-03T04:53:24;7.63;;;3.23;;
12774;SDS011;6451;42.630;23.382;2023-04-03T04:55:51;10.50;;;3.30;;
12774;SDS011;6451;42.630;23.382;2023-04-03T04:58:19;4.23;;;2.97;;
12774;SDS011;6451;42.630;23.382;2023-04-03T05:00:46;6.00;;;3.37;;
12774;SDS011;6451;42.630;23.382;2023-04-03T05:03:13;5.83;;;3.03;;
12774;SDS011;6451;42.630;23.382;2023-04-03T05:05:40;5.90;;;2.80;;
12774;SDS011;6451;42.630;23.382;2023-04-03T05:08:09;9.50;;;3.10;;
12774;SDS011;6451;42.630;23.382;2023-04-03T05:10:37;8.83;;;3.10;;
12774;SDS011;6451;42.630;23.382;2023-04-03T05:13:05;10.30;;;2.90;;
12774;SDS011;6451;42.630;23.382;2023-04-03T05:15:34;10.63;;;3.23;;
12774;SDS011;6451;42.630;23.382;2023-04-03T05:18:03;7.07;;;2.97;;
12774;SDS011;6451;42.630;23.382;2023-04-03T05:20:30;9.27;;;3.07;;
12774;SDS011;6451;42.630;23.382;2023-04-03T05:22:58;9.63;;;3.27;;
12774;SDS011;6451;42.630;23.382;2023-04-03T05:25:25;9.03;;;3.67;;
12774;SDS011;6451;42.630;23.382;2023-04-03T05:27:52;6.33;;;3.30;;
12774;SDS011;6451;42.630;23.382;2023-04-03T05:30:20;8.07;;;3.57;;
12774;SDS011;6451;42.630;23.382;2023-04-03T05:32:49;7.93;;;3.80;;
12774;SDS011;6451;42.630;23.382;2023-04-03T05:35:16;8.43;;;3.53;;
12774;SDS011;6451;42.630;23.382;2023-04-03T05:37:43;7.00;;;3.97;;
12774;SDS011;6451;42.630;23.382;2023-04-03T05:40:10;10.00;;;4.30;;
12774;SDS011;6451;42.630;23.382;2023-04-03T05:42:38;4.67;;;3.57;;
12774;SDS011;6451;42.630;23.382;2023-04-03T05:45:05;10.20;;;3.70;;
12774;SDS011;6451;42.630;23.382;2023-04-03T05:47:32;7.47;;;4.00;;
12774;SDS011;6451;42.630;23.382;2023-04-03T05:50:01;12.57;;;4.33;;
12774;SDS011;6451;42.630;23.382;2023-04-03T05:52:31;8.97;;;4.90;;
12774;SDS011;6451;42.630;23.382;2023-04-03T05:55:01;7.10;;;4.43;;
12774;SDS011;6451;42.630;23.382;2023-04-03T05:57:28;10.00;;;4.10;;
12774;SDS011;6451;42.630;23.382;2023-04-03T05:59:56;4.77;;;3.30;;
12774;SDS011;6451;42.630;23.382;2023-04-03T06:02:23;5.50;;;3.07;;
12774;SDS011;6451;42.630;23.382;2023-04-03T06:04:51;6.80;;;3.30;;
12774;SDS011;6451;42.630;23.382;2023-04-03T06:07:20;7.70;;;3.07;;
12774;SDS011;6451;42.630;23.382;2023-04-03T06:09:49;5.27;;;3.57;;
12774;SDS011;6451;42.630;23.382;2023-04-03T06:12:17;8.83;;;3.63;;
12774;SDS011;6451;42.630;23.382;2023-04-03T06:14:45;6.03;;;3.30;;
12774;SDS011;6451;42.630;23.382;2023-04-03T06:17:11;6.23;;;3.50;;
12774;SDS011;6451;42.630;23.382;2023-04-03T06:19:39;6.73;;;4.20;;
12774;SDS011;6451;42.630;23.382;2023-04-03T06:22:06;7.37;;;4.00;;
12774;SDS011;6451;42.630;23.382;2023-04-03T06:24:35;8.30;;;4.20;;
12774;SDS011;6451;42.630;23.382;2023-04-03T06:27:02;7.37;;;4.00;;
12774;SDS011;6451;42.630;23.382;2023-04-03T06:29:29;8.50;;;4.20;;
12774;SDS011;6451;42.630;23.382;2023-04-03T06:31:57;6.13;;;4.07;;
12774;SDS011;6451;42.630;23.382;2023-04-03T06:34:24;6.90;;;3.63;;
12774;SDS011;6451;42.630;23.382;2023-04-03T06:36:50;6.17;;;4.03;;
12774;SDS011;6451;42.630;23.382;2023-04-03T06:39:23;6.20;;;3.67;;
12774;SDS011;6451;42.630;23.382;2023-04-03T06:41:52;6.00;;;3.40;;
12774;SDS011;6451;42.630;23.382;2023-04-03T06:44:19;4.80;;;3.13;;
12774;SDS011;6451;42.630;23.382;2023-04-03T06:46:46;4.53;;;2.87;;
12774;SDS011;6451;42.630;23.382;2023-04-03T06:49:13;4.17;;;3.30;;
12774;SDS011;6451;42.630;23.382;2023-04-03T06:51:40;4.70;;;2.93;;
12774;SDS011;6451;42.630;23.382;2023-04-03T06:54:07;3.93;;;3.20;;
12774;SDS011;6451;42.630;23.382;2023-04-03T06:56:34;5.90;;;3.20;;
12774;SDS011;6451;42.630;23.382;2023-04-03T06:59:04;7.83;;;3.70;;
12774;SDS011;6451;42.630;23.382;2023-04-03T07:01:31;6.37;;;3.70;;
12774;SDS011;6451;42.630;23.382;2023-04-03T07:03:58;5.57;;;3.73;;
12774;SDS011;6451;42.630;23.382;2023-04-03T07:06:25;8.70;;;4.33;;
12774;SDS011;6451;42.630;23.382;2023-04-03T07:08:53;7.03;;;4.13;;
12774;SDS011;6451;42.630;23.382;2023-04-03T07:11:20;8.30;;;4.07;;
12774;SDS011;6451;42.630;23.382;2023-04-03T07:13:48;3.60;;;3.30;;
12774;SDS011;6451;42.630;23.382;2023-04-03T07:16:16;13.73;;;3.57;;
12774;SDS011;6451;42.630;23.382;2023-04-03T07:18:43;4.53;;;3.43;;
12774;SDS011;6451;42.630;23.382;2023-04-03T07:21:10;8.80;;;3.77;;
12774;SDS011;6451;42.630;23.382;2023-04-03T07:23:38;7.47;;;4.10;;
12774;SDS011;6451;42.630;23.382;2023-04-03T07:26:06;8.13;;;4.80;;
12774;SDS011;6451;42.630;23.382;2023-04-03T07:28:34;11.33;;;4.93;;
12774;SDS011;6451;42.630;23.382;2023-04-03T07:31:03;11.60;;;4.90;;
12774;SDS011;6451;42.630;23.382;2023-04-03T07:33:34;12.67;;;4.97;;
12774;SDS011;6451;42.630;23.382;2023-04-03T07:36:02;12.13;;;6.07;;
12774;SDS011;6451;42.630;23.382;2023-04-03T07:38:31;11.20;;;6.17;;
12774;SDS011;6451;42.630;23.382;2023-04-03T07:40:58;12.40;;;6.77;;
12774;SDS011;6451;42.630;23.382;2023-04-03T07:43:24;11.77;;;6.70;;
12774;SDS011;6451;42.630;23.382;2023-04-03T07:45:51;10.53;;;6.00;;
12774;SDS011;6451;42.630;23.382;2023-04-03T07:48:19;9.30;;;6.23;;
12774;SDS011;6451;42.630;23.382;2023-04-03T07:50:48;14.10;;;7.10;;
12774;SDS011;6451;42.630;23.382;2023-04-03T07:53:16;11.27;;;7.97;;
12774;SDS011;6451;42.630;23.382;2023-04-03T07:55:45;17.47;;;8.60;;
12774;SDS011;6451;42.630;23.382;2023-04-03T07:58:14;15.23;;;9.33;;
12774;SDS011;6451;42.630;23.382;2023-04-03T08:00:44;16.37;;;9.13;;
12774;SDS011;6451;42.630;23.382;2023-04-03T08:03:12;16.03;;;9.43;;
12774;SDS011;6451;42.630;23.382;2023-04-03T08:05:40;16.77;;;9.67;;
12774;SDS011;6451;42.630;23.382;2023-04-03T08:08:10;12.93;;;10.07;;
12774;SDS011;6451;42.630;23.382;2023-04-03T08:10:39;16.33;;;9.57;;
12774;SDS011;6451;42.630;23.382;2023-04-03T08:13:06;22.17;;;9.60;;
12774;SDS011;6451;42.630;23.382;2023-04-03T08:15:34;17.77;;;10.13;;
12774;SDS011;6451;42.630;23.382;2023-04-03T08:18:02;20.30;;;9.87;;
12774;SDS011;6451;42.630;23.382;2023-04-03T08:20:29;15.00;;;9.50;;
12774;SDS011;6451;42.630;23.382;2023-04-03T08:22:56;21.23;;;11.43;;
12774;SDS011;6451;42.630;23.382;2023-04-03T08:25:24;20.47;;;13.13;;
12774;SDS011;6451;42.630;23.382;2023-04-03T08:27:51;25.07;;;13.83;;
12774;SDS011;6451;42.630;23.382;2023-04-03T08:30:18;17.37;;;12.73;;
12774;SDS011;6451;42.630;23.382;2023-04-03T08:32:45;20.27;;;11.80;;
12774;SDS011;6451;42.630;23.382;2023-04-03T08:35:12;16.37;;;11.40;;
12774;SDS011;6451;42.630;23.382;2023-04-03T08:37:39;20.27;;;11.13;;
12774;SDS011;6451;42.630;23.382;2023-04-03T08:40:07;15.17;;;11.10;;
12774;SDS011;6451;42.630;23.382;2023-04-03T08:42:43;18.63;;;9.90;;
12774;SDS011;6451;42.630;23.382;2023-04-03T08:45:19;14.50;;;10.20;;
12774;SDS011;6451;42.630;23.382;2023-04-03T08:47:52;13.07;;;8.73;;
12774;SDS011;6451;42.630;23.382;2023-04-03T08:50:28;9.23;;;8.20;;
12774;SDS011;6451;42.630;23.382;2023-04-03T08:52:59;15.70;;;8.70;;
12774;SDS011;6451;42.630;23.382;2023-04-03T08:55:31;12.17;;;9.30;;
12774;SDS011;6451;42.630;23.382;2023-04-03T08:58:03;13.77;;;8.70;;
12774;SDS011;6451;42.630;23.382;2023-04-03T09:00:33;11.83;;;8.73;;
12774;SDS011;6451;42.630;23.382;2023-04-03T09:03:10;13.03;;;8.90;;
12774;SDS011;6451;42.630;23.382;2023-04-03T09:05:39;16.50;;;9.20;;
12774;SDS011;6451;42.630;23.382;2023-04-03T09:08:14;11.33;;;8.47;;
12774;SDS011;6451;42.630;23.382;2023-04-03T09:10:48;12.60;;;8.67;;
12774;SDS011;6451;42.630;23.382;2023-04-03T09:13:21;12.93;;;8.07;;
12774;SDS011;6451;42.630;23.382;2023-04-03T09:15:53;13.33;;;7.47;;
12774;SDS011;6451;42.630;23.382;2023-04-03T09:18:21;12.07;;;7.80;;
12774;SDS011;6451;42.630;23.382;2023-04-03T09:20:55;14.37;;;7.43;;
12774;SDS011;6451;42.630;23.382;2023-04-03T09:23:28;10.30;;;6.97;;
12774;SDS011;6451;42.630;23.382;2023-04-03T09:26:01;10.43;;;6.40;;
12774;SDS011;6451;42.630;23.382;2023-04-03T09:28:33;10.03;;;6.40;;
12774;SDS011;6451;42.630;23.382;2023-04-03T09:31:05;13.37;;;6.47;;
12774;SDS011;6451;42.630;23.382;2023-04-03T09:33:43;12.10;;;5.67;;
12774;SDS011;6451;42.630;23.382;2023-04-03T09:36:10;11.77;;;5.75;;
12774;SDS011;6451;42.630;23.382;2023-04-03T09:38:37;4.93;;;4.00;;
12774;SDS011;6451;42.630;23.382;2023-04-03T09:41:05;6.88;;;4.40;;
12774;SDS011;6451;42.630;23.382;2023-04-03T09:43:35;6.75;;;4.45;;
12774;SDS011;6451;42.630;23.382;2023-04-03T09:46:18;6.80;;;4.32;;
12774;SDS011;6451;42.630;23.382;2023-04-03T09:48:58;6.45;;;4.75;;
12774;SDS011;6451;42.630;23.382;2023-04-03T09:51:27;7.47;;;4.82;;
12774;SDS011;6451;42.630;23.382;2023-04-03T09:53:54;7.43;;;4.47;;
12774;SDS011;6451;42.630;23.382;2023-04-03T09:56:23;7.55;;;4.85;;
12774;SDS011;6451;42.630;23.382;2023-04-03T09:59:08;6.27;;;4.43;;
12774;SDS011;6451;42.630;23.382;2023-04-03T10:01:42;5.20;;;3.90;;
12774;SDS011;6451;42.630;23.382;2023-04-03T10:04:21;4.40;;;3.50;;
12774;SDS011;6451;42.630;23.382;2023-04-03T10:06:50;4.43;;;2.70;;
12774;SDS011;6451;42.630;23.382;2023-04-03T10:09:19;4.47;;;2.80;;
12774;SDS011;6451;42.630;23.382;2023-04-03T10:14:37;5.43;;;2.90;;
12774;SDS011;6451;42.630;23.382;2023-04-03T10:17:12;4.00;;;3.20;;
12774;SDS011;6451;42.630;23.382;2023-04-03T10:19:46;7.30;;;3.57;;
12774;SDS011;6451;42.630;23.382;2023-04-03T10:22:19;4.73;;;3.50;;
12774;SDS011;6451;42.630;23.382;2023-04-03T10:24:54;4.47;;;3.40;;
12774;SDS011;6451;42.630;23.382;2023-04-03T10:30:30;5.13;;;2.50;;
12774;SDS011;6451;42.630;23.382;2023-04-03T10:33:10;2.90;;;2.53;;
12774;SDS011;6451;42.630;23.382;2023-04-03T10:35:59;3.17;;;2.63;;
12774;SDS011;6451;42.630;23.382;2023-04-03T10:38:37;3.30;;;2.50;;
12774;SDS011;6451;42.630;23.382;2023-04-03T10:41:11;3.63;;;2.63;;
12774;SDS011;6451;42.630;23.382;2023-04-03T10:43:43;3.10;;;2.40;;
12774;SDS011;6451;42.630;23.382;2023-04-03T10:46:20;3.93;;;2.63;;
12774;SDS011;6451;42.630;23.382;2023-04-03T10:48:58;4.13;;;2.90;;
12774;SDS011;6451;42.630;23.382;2023-04-03T10:51:34;3.87;;;2.50;;
12774;SDS011;6451;42.630;23.382;2023-04-03T10:54:11;3.70;;;2.80;;
12774;SDS011;6451;42.630;23.382;2023-04-03T10:56:42;3.23;;;2.73;;
12774;SDS011;6451;42.630;23.382;2023-04-03T10:59:16;3.27;;;2.67;;
12774;SDS011;6451;42.630;23.382;2023-04-03T11:01:49;4.80;;;3.30;;
12774;SDS011;6451;42.630;23.382;2023-04-03T11:04:20;6.67;;;3.10;;
12774;SDS011;6451;42.630;23.382;2023-04-03T11:06:51;3.23;;;2.90;;
12774;SDS011;6451;42.630;23.382;2023-04-03T11:09:25;6.10;;;3.30;;
12774;SDS011;6451;42.630;23.382;2023-04-03T11:11:56;4.30;;;2.80;;
12774;SDS011;6451;42.630;23.382;2023-04-03T11:14:29;5.23;;;3.50;;
12774;SDS011;6451;42.630;23.382;2023-04-03T11:17:04;6.73;;;3.33;;
12774;SDS011;6451;42.630;23.382;2023-04-03T11:19:39;6.73;;;3.33;;
12774;SDS011;6451;42.630;23.382;2023-04-03T11:22:14;4.53;;;3.00;;
12774;SDS011;6451;42.630;23.382;2023-04-03T11:24:51;3.50;;;3.20;;
12774;SDS011;6451;42.630;23.382;2023-04-03T11:27:25;5.83;;;3.87;;
12774;SDS011;6451;42.630;23.382;2023-04-03T11:29:59;6.50;;;4.20;;
12774;SDS011;6451;42.630;23.382;2023-04-03T11:32:34;4.43;;;3.77;;
12774;SDS011;6451;42.630;23.382;2023-04-03T11:35:27;5.63;;;3.87;;
12774;SDS011;6451;42.630;23.382;2023-04-03T11:37:55;5.77;;;3.87;;
12774;SDS011;6451;42.630;23.382;2023-04-03T11:40:24;5.57;;;3.80;;
12774;SDS011;6451;42.630;23.382;2023-04-03T11:42:55;4.33;;;3.63;;
12774;SDS011;6451;42.630;23.382;2023-04-03T11:45:33;6.30;;;3.67;;
12774;SDS011;6451;42.630;23.382;2023-04-03T11:48:04;4.17;;;3.70;;
12774;SDS011;6451;42.630;23.382;2023-04-03T11:50:40;4.10;;;3.40;;
12774;SDS011;6451;42.630;23.382;2023-04-03T11:56:01;4.00;;;3.20;;
12774;SDS011;6451;42.630;23.382;2023-04-03T11:58:30;5.10;;;3.50;;
12774;SDS011;6451;42.630;23.382;2023-04-03T12:01:02;4.23;;;3.70;;
12774;SDS011;6451;42.630;23.382;2023-04-03T12:06:50;8.13;;;5.33;;
12774;SDS011;6451;42.630;23.382;2023-04-03T12:09:28;7.80;;;5.93;;
12774;SDS011;6451;42.630;23.382;2023-04-03T12:12:01;6.50;;;5.90;;
12774;SDS011;6451;42.630;23.382;2023-04-03T12:15:11;6.63;;;5.43;;
12774;SDS011;6451;42.630;23.382;2023-04-03T12:17:47;7.93;;;6.57;;
12774;SDS011;6451;42.630;23.382;2023-04-03T12:23:30;4.90;;;4.07;;
12774;SDS011;6451;42.630;23.382;2023-04-03T12:26:01;6.07;;;4.27;;
12774;SDS011;6451;42.630;23.382;2023-04-03T12:28:38;6.20;;;4.67;;
12774;SDS011;6451;42.630;23.382;2023-04-03T12:31:08;7.57;;;5.17;;
12774;SDS011;6451;42.630;23.382;2023-04-03T12:33:51;6.00;;;5.20;;
12774;SDS011;6451;42.630;23.382;2023-04-03T12:36:38;7.70;;;5.80;;
12774;SDS011;6451;42.630;23.382;2023-04-03T12:39:25;7.57;;;5.50;;
12774;SDS011;6451;42.630;23.382;2023-04-03T12:42:18;6.13;;;5.10;;
12774;SDS011;6451;42.630;23.382;2023-04-03T12:44:56;6.67;;;4.73;;
12774;SDS011;6451;42.630;23.382;2023-04-03T12:47:30;6.27;;;4.80;;
12774;SDS011;6451;42.630;23.382;2023-04-03T12:50:13;6.83;;;5.53;;
12774;SDS011;6451;42.630;23.382;2023-04-03T12:52:45;6.40;;;4.80;;
12774;SDS011;6451;42.630;23.382;2023-04-03T12:55:19;5.47;;;4.93;;
12774;SDS011;6451;42.630;23.382;2023-04-03T12:57:47;7.33;;;6.00;;
12774;SDS011;6451;42.630;23.382;2023-04-03T13:00:22;8.23;;;5.73;;
12774;SDS011;6451;42.630;23.382;2023-04-03T13:02:55;8.30;;;6.17;;
12774;SDS011;6451;42.630;23.382;2023-04-03T13:05:22;6.87;;;5.40;;
12774;SDS011;6451;42.630;23.382;2023-04-03T13:07:50;6.20;;;4.70;;
12774;SDS011;6451;42.630;23.382;2023-04-03T13:10:23;4.53;;;4.10;;
12774;SDS011;6451;42.630;23.382;2023-04-03T13:12:51;5.80;;;4.70;;
12774;SDS011;6451;42.630;23.382;2023-04-03T13:15:20;5.97;;;4.80;;
12774;SDS011;6451;42.630;23.382;2023-04-03T13:17:50;5.47;;;4.70;;
12774;SDS011;6451;42.630;23.382;2023-04-03T13:20:19;7.17;;;5.90;;
12774;SDS011;6451;42.630;23.382;2023-04-03T13:22:58;8.97;;;7.13;;
12774;SDS011;6451;42.630;23.382;2023-04-03T13:25:32;8.80;;;6.57;;
12774;SDS011;6451;42.630;23.382;2023-04-03T13:28:01;9.23;;;7.20;;
12774;SDS011;6451;42.630;23.382;2023-04-03T13:30:32;9.07;;;7.07;;
12774;SDS011;6451;42.630;23.382;2023-04-03T13:33:03;6.10;;;5.50;;
12774;SDS011;6451;42.630;23.382;2023-04-03T13:35:35;7.57;;;5.23;;
12774;SDS011;6451;42.630;23.382;2023-04-03T13:38:05;6.60;;;5.43;;
12774;SDS011;6451;42.630;23.382;2023-04-03T13:40:49;5.63;;;5.10;;
12774;SDS011;6451;42.630;23.382;2023-04-03T13:43:19;7.73;;;5.47;;
12774;SDS011;6451;42.630;23.382;2023-04-03T13:45:55;6.80;;;4.97;;
12774;SDS011;6451;42.630;23.382;2023-04-03T13:48:24;5.73;;;5.03;;
12774;SDS011;6451;42.630;23.382;2023-04-03T13:50:54;6.57;;;5.80;;
12774;SDS011;6451;42.630;23.382;2023-04-03T13:53:26;6.80;;;5.90;;
12774;SDS011;6451;42.630;23.382;2023-04-03T13:55:58;8.50;;;6.27;;
12774;SDS011;6451;42.630;23.382;2023-04-03T13:58:36;7.20;;;6.20;;
12774;SDS011;6451;42.630;23.382;2023-04-03T14:01:09;9.03;;;7.50;;
12774;SDS011;6451;42.630;23.382;2023-04-03T14:03:41;11.00;;;6.73;;
12774;SDS011;6451;42.630;23.382;2023-04-03T14:06:11;9.63;;;7.07;;
12774;SDS011;6451;42.630;23.382;2023-04-03T14:08:39;8.00;;;6.13;;
12774;SDS011;6451;42.630;23.382;2023-04-03T14:11:10;7.10;;;5.87;;
12774;SDS011;6451;42.630;23.382;2023-04-03T14:13:41;7.47;;;5.63;;
12774;SDS011;6451;42.630;23.382;2023-04-03T14:16:12;7.47;;;6.57;;
12774;SDS011;6451;42.630;23.382;2023-04-03T14:18:42;7.33;;;6.57;;
12774;SDS011;6451;42.630;23.382;2023-04-03T14:21:10;8.47;;;6.63;;
12774;SDS011;6451;42.630;23.382;2023-04-03T14:23:38;5.43;;;4.80;;
12774;SDS011;6451;42.630;23.382;2023-04-03T14:26:09;6.27;;;5.33;;
12774;SDS011;6451;42.630;23.382;2023-04-03T14:28:38;6.07;;;5.30;;
12774;SDS011;6451;42.630;23.382;2023-04-03T14:31:07;6.10;;;5.30;;
12774;SDS011;6451;42.630;23.382;2023-04-03T14:33:36;6.07;;;5.10;;
12774;SDS011;6451;42.630;23.382;2023-04-03T14:36:05;5.93;;;4.70;;
12774;SDS011;6451;42.630;23.382;2023-04-03T14:38:38;5.20;;;4.70;;
12774;SDS011;6451;42.630;23.382;2023-04-03T14:41:06;4.60;;;4.20;;
12774;SDS011;6451;42.630;23.382;2023-04-03T14:43:35;4.33;;;3.93;;
12774;SDS011;6451;42.630;23.382;2023-04-03T14:46:04;6.73;;;4.63;;
12774;SDS011;6451;42.630;23.382;2023-04-03T14:48:31;5.33;;;4.77;;
12774;SDS011;6451;42.630;23.382;2023-04-03T14:50:58;5.77;;;4.23;;
12774;SDS011;6451;42.630;23.382;2023-04-03T14:53:26;4.23;;;3.90;;
12774;SDS011;6451;42.630;23.382;2023-04-03T14:55:54;4.63;;;4.23;;
12774;SDS011;6451;42.630;23.382;2023-04-03T14:58:21;4.80;;;4.30;;
12774;SDS011;6451;42.630;23.382;2023-04-03T15:00:50;4.60;;;4.20;;
12774;SDS011;6451;42.630;23.382;2023-04-03T15:03:18;5.47;;;3.93;;
12774;SDS011;6451;42.630;23.382;2023-04-03T15:05:47;5.20;;;4.53;;
12774;SDS011;6451;42.630;23.382;2023-04-03T15:08:17;6.03;;;4.70;;
12774;SDS011;6451;42.630;23.382;2023-04-03T15:10:46;6.10;;;5.50;;
12774;SDS011;6451;42.630;23.382;2023-04-03T15:13:14;8.13;;;7.20;;
12774;SDS011;6451;42.630;23.382;2023-04-03T15:15:41;7.00;;;6.30;;
12774;SDS011;6451;42.630;23.382;2023-04-03T15:18:12;6.47;;;5.60;;